sensor_id;sensor_type;location;lat;lon;timestamp;P1;durP1;ratioP1;P2;durP2;ratioP2
12480;SDS011;6305;48.398;11.762;2023-04-21T00:00:16;29.40;;;17.85;;
12480;SDS011;6305;48.398;11.762;2023-04-21T00:02:45;29.25;;;18.73;;
12480;SDS011;6305;48.398;11.762;2023-04-21T00:05:13;30.85;;;19.20;;
12480;SDS011;6305;48.398;11.762;2023-04-21T00:07:40;29.90;;;18.15;;
12480;SDS011;6305;48.398;11.762;2023-04-21T00:10:08;29.25;;;18.40;;
12480;SDS011;6305;48.398;11.762;2023-04-21T00:12:37;30.83;;;18.52;;
12480;SDS011;6305;48.398;11.762;2023-04-21T00:15:04;32.75;;;19.00;;
12480;SDS011;6305;48.398;11.762;2023-04-21T00:17:32;31.27;;;19.52;;
12480;SDS011;6305;48.398;11.762;2023-04-21T00:20:01;32.60;;;19.58;;
12480;SDS011;6305;48.398;11.762;2023-04-21T00:22:29;30.95;;;18.75;;
12480;SDS011;6305;48.398;11.762;2023-04-21T00:24:56;31.13;;;19.48;;
12480;SDS011;6305;48.398;11.762;2023-04-21T00:27:23;35.33;;;20.13;;
12480;SDS011;6305;48.398;11.762;2023-04-21T00:29:50;33.33;;;20.15;;
12480;SDS011;6305;48.398;11.762;2023-04-21T00:32:17;34.58;;;19.70;;
12480;SDS011;6305;48.398;11.762;2023-04-21T00:34:44;32.17;;;20.60;;
12480;SDS011;6305;48.398;11.762;2023-04-21T00:37:12;31.15;;;19.20;;
12480;SDS011;6305;48.398;11.762;2023-04-21T00:39:39;34.42;;;19.23;;
12480;SDS011;6305;48.398;11.762;2023-04-21T00:42:06;33.53;;;20.02;;
12480;SDS011;6305;48.398;11.762;2023-04-21T00:44:34;32.67;;;19.25;;
12480;SDS011;6305;48.398;11.762;2023-04-21T00:47:02;33.42;;;19.17;;
12480;SDS011;6305;48.398;11.762;2023-04-21T00:49:29;32.92;;;19.27;;
12480;SDS011;6305;48.398;11.762;2023-04-21T00:51:56;31.65;;;18.70;;
12480;SDS011;6305;48.398;11.762;2023-04-21T00:54:25;35.22;;;20.10;;
12480;SDS011;6305;48.398;11.762;2023-04-21T00:56:53;35.42;;;20.35;;
12480;SDS011;6305;48.398;11.762;2023-04-21T00:59:21;38.22;;;20.92;;
12480;SDS011;6305;48.398;11.762;2023-04-21T01:01:48;35.47;;;21.02;;
12480;SDS011;6305;48.398;11.762;2023-04-21T01:04:16;38.58;;;21.30;;
12480;SDS011;6305;48.398;11.762;2023-04-21T01:06:43;37.15;;;21.50;;
12480;SDS011;6305;48.398;11.762;2023-04-21T01:09:11;36.80;;;21.35;;
12480;SDS011;6305;48.398;11.762;2023-04-21T01:11:39;38.03;;;21.88;;
12480;SDS011;6305;48.398;11.762;2023-04-21T01:14:06;37.85;;;21.55;;
12480;SDS011;6305;48.398;11.762;2023-04-21T01:16:33;40.97;;;23.25;;
12480;SDS011;6305;48.398;11.762;2023-04-21T01:19:01;41.85;;;22.45;;
12480;SDS011;6305;48.398;11.762;2023-04-21T01:21:35;41.58;;;23.17;;
12480;SDS011;6305;48.398;11.762;2023-04-21T01:24:05;43.78;;;23.02;;
12480;SDS011;6305;48.398;11.762;2023-04-21T01:26:32;40.47;;;21.95;;
12480;SDS011;6305;48.398;11.762;2023-04-21T01:29:00;41.55;;;22.48;;
12480;SDS011;6305;48.398;11.762;2023-04-21T01:31:27;42.03;;;22.52;;
12480;SDS011;6305;48.398;11.762;2023-04-21T01:33:55;40.33;;;22.00;;
12480;SDS011;6305;48.398;11.762;2023-04-21T01:36:22;43.00;;;22.98;;
12480;SDS011;6305;48.398;11.762;2023-04-21T01:38:52;41.70;;;22.05;;
12480;SDS011;6305;48.398;11.762;2023-04-21T01:41:21;45.40;;;23.60;;
12480;SDS011;6305;48.398;11.762;2023-04-21T01:43:48;38.80;;;21.60;;
12480;SDS011;6305;48.398;11.762;2023-04-21T01:46:18;47.33;;;22.83;;
12480;SDS011;6305;48.398;11.762;2023-04-21T01:48:45;50.15;;;25.83;;
12480;SDS011;6305;48.398;11.762;2023-04-21T01:51:11;48.50;;;24.08;;
12480;SDS011;6305;48.398;11.762;2023-04-21T01:53:38;43.50;;;23.50;;
12480;SDS011;6305;48.398;11.762;2023-04-21T01:56:07;50.03;;;24.60;;
12480;SDS011;6305;48.398;11.762;2023-04-21T01:58:38;49.58;;;24.55;;
12480;SDS011;6305;48.398;11.762;2023-04-21T02:01:05;54.03;;;26.27;;
12480;SDS011;6305;48.398;11.762;2023-04-21T02:03:33;55.33;;;26.02;;
12480;SDS011;6305;48.398;11.762;2023-04-21T02:06:00;55.97;;;26.80;;
12480;SDS011;6305;48.398;11.762;2023-04-21T02:08:28;56.25;;;27.45;;
12480;SDS011;6305;48.398;11.762;2023-04-21T02:10:55;56.80;;;26.27;;
12480;SDS011;6305;48.398;11.762;2023-04-21T02:13:23;55.80;;;26.52;;
12480;SDS011;6305;48.398;11.762;2023-04-21T02:15:50;57.90;;;27.13;;
12480;SDS011;6305;48.398;11.762;2023-04-21T02:18:17;54.42;;;26.77;;
12480;SDS011;6305;48.398;11.762;2023-04-21T02:20:45;53.88;;;26.05;;
12480;SDS011;6305;48.398;11.762;2023-04-21T02:23:12;55.75;;;25.52;;
12480;SDS011;6305;48.398;11.762;2023-04-21T02:25:39;55.72;;;26.33;;
12480;SDS011;6305;48.398;11.762;2023-04-21T02:28:06;51.38;;;26.10;;
12480;SDS011;6305;48.398;11.762;2023-04-21T02:30:35;52.85;;;26.85;;
12480;SDS011;6305;48.398;11.762;2023-04-21T02:33:01;61.83;;;28.38;;
12480;SDS011;6305;48.398;11.762;2023-04-21T02:35:28;50.67;;;25.15;;
12480;SDS011;6305;48.398;11.762;2023-04-21T02:37:57;55.67;;;26.80;;
12480;SDS011;6305;48.398;11.762;2023-04-21T02:40:30;55.55;;;26.60;;
12480;SDS011;6305;48.398;11.762;2023-04-21T02:42:57;49.30;;;25.15;;
12480;SDS011;6305;48.398;11.762;2023-04-21T02:45:24;54.67;;;26.48;;
12480;SDS011;6305;48.398;11.762;2023-04-21T02:47:52;55.58;;;26.80;;
12480;SDS011;6305;48.398;11.762;2023-04-21T02:50:20;50.55;;;25.85;;
12480;SDS011;6305;48.398;11.762;2023-04-21T02:52:47;52.75;;;26.38;;
12480;SDS011;6305;48.398;11.762;2023-04-21T02:55:14;51.42;;;26.17;;
12480;SDS011;6305;48.398;11.762;2023-04-21T02:57:41;55.75;;;25.42;;
12480;SDS011;6305;48.398;11.762;2023-04-21T03:00:08;55.33;;;26.05;;
12480;SDS011;6305;48.398;11.762;2023-04-21T03:02:37;55.83;;;24.52;;
12480;SDS011;6305;48.398;11.762;2023-04-21T03:05:05;55.67;;;27.15;;
12480;SDS011;6305;48.398;11.762;2023-04-21T03:07:33;52.42;;;25.88;;
12480;SDS011;6305;48.398;11.762;2023-04-21T03:10:00;53.67;;;26.92;;
12480;SDS011;6305;48.398;11.762;2023-04-21T03:12:28;59.88;;;27.40;;
12480;SDS011;6305;48.398;11.762;2023-04-21T03:14:55;51.97;;;27.10;;
12480;SDS011;6305;48.398;11.762;2023-04-21T03:17:22;58.30;;;27.52;;
12480;SDS011;6305;48.398;11.762;2023-04-21T03:19:49;57.60;;;26.67;;
12480;SDS011;6305;48.398;11.762;2023-04-21T03:22:18;58.78;;;27.48;;
12480;SDS011;6305;48.398;11.762;2023-04-21T03:24:45;56.25;;;26.08;;
12480;SDS011;6305;48.398;11.762;2023-04-21T03:27:12;54.50;;;26.58;;
12480;SDS011;6305;48.398;11.762;2023-04-21T03:29:39;55.22;;;26.90;;
12480;SDS011;6305;48.398;11.762;2023-04-21T03:32:06;57.88;;;26.67;;
12480;SDS011;6305;48.398;11.762;2023-04-21T03:34:33;58.75;;;26.90;;
12480;SDS011;6305;48.398;11.762;2023-04-21T03:37:03;66.57;;;29.13;;
12480;SDS011;6305;48.398;11.762;2023-04-21T03:39:32;66.43;;;28.77;;
12480;SDS011;6305;48.398;11.762;2023-04-21T03:42:00;62.60;;;27.80;;
12480;SDS011;6305;48.398;11.762;2023-04-21T03:44:29;57.72;;;26.92;;
12480;SDS011;6305;48.398;11.762;2023-04-21T03:46:56;62.08;;;27.40;;
12480;SDS011;6305;48.398;11.762;2023-04-21T03:49:23;63.50;;;28.27;;
12480;SDS011;6305;48.398;11.762;2023-04-21T03:51:50;63.05;;;27.95;;
12480;SDS011;6305;48.398;11.762;2023-04-21T03:54:17;63.10;;;27.70;;
12480;SDS011;6305;48.398;11.762;2023-04-21T03:56:45;67.03;;;28.63;;
12480;SDS011;6305;48.398;11.762;2023-04-21T03:59:12;65.18;;;26.98;;
12480;SDS011;6305;48.398;11.762;2023-04-21T04:01:38;61.45;;;26.92;;
12480;SDS011;6305;48.398;11.762;2023-04-21T04:04:06;62.38;;;28.27;;
12480;SDS011;6305;48.398;11.762;2023-04-21T04:06:34;65.82;;;29.38;;
12480;SDS011;6305;48.398;11.762;2023-04-21T04:09:01;61.13;;;28.10;;
12480;SDS011;6305;48.398;11.762;2023-04-21T04:11:28;67.47;;;29.60;;
12480;SDS011;6305;48.398;11.762;2023-04-21T04:13:57;72.30;;;28.38;;
12480;SDS011;6305;48.398;11.762;2023-04-21T04:16:24;75.72;;;30.02;;
12480;SDS011;6305;48.398;11.762;2023-04-21T04:18:52;71.20;;;28.60;;
12480;SDS011;6305;48.398;11.762;2023-04-21T04:21:20;71.10;;;29.77;;
12480;SDS011;6305;48.398;11.762;2023-04-21T04:23:48;70.10;;;29.48;;
12480;SDS011;6305;48.398;11.762;2023-04-21T04:26:16;73.97;;;30.77;;
12480;SDS011;6305;48.398;11.762;2023-04-21T04:28:44;75.95;;;29.85;;
12480;SDS011;6305;48.398;11.762;2023-04-21T04:31:12;72.68;;;30.05;;
12480;SDS011;6305;48.398;11.762;2023-04-21T04:33:41;79.43;;;30.65;;
12480;SDS011;6305;48.398;11.762;2023-04-21T04:36:08;71.13;;;30.55;;
12480;SDS011;6305;48.398;11.762;2023-04-21T04:38:36;80.78;;;32.00;;
12480;SDS011;6305;48.398;11.762;2023-04-21T04:41:03;78.28;;;31.85;;
12480;SDS011;6305;48.398;11.762;2023-04-21T04:43:30;75.03;;;31.92;;
12480;SDS011;6305;48.398;11.762;2023-04-21T04:46:01;76.95;;;30.30;;
12480;SDS011;6305;48.398;11.762;2023-04-21T04:48:30;72.03;;;31.35;;
12480;SDS011;6305;48.398;11.762;2023-04-21T04:50:57;79.57;;;32.20;;
12480;SDS011;6305;48.398;11.762;2023-04-21T04:53:24;66.13;;;30.30;;
12480;SDS011;6305;48.398;11.762;2023-04-21T04:55:53;68.38;;;30.73;;
12480;SDS011;6305;48.398;11.762;2023-04-21T04:58:21;80.95;;;32.42;;
12480;SDS011;6305;48.398;11.762;2023-04-21T05:00:48;72.72;;;31.85;;
12480;SDS011;6305;48.398;11.762;2023-04-21T05:03:15;74.03;;;32.20;;
12480;SDS011;6305;48.398;11.762;2023-04-21T05:05:44;67.88;;;31.17;;
12480;SDS011;6305;48.398;11.762;2023-04-21T05:08:11;69.28;;;31.70;;
12480;SDS011;6305;48.398;11.762;2023-04-21T05:10:38;70.05;;;31.00;;
12480;SDS011;6305;48.398;11.762;2023-04-21T05:13:05;69.43;;;31.38;;
12480;SDS011;6305;48.398;11.762;2023-04-21T05:15:32;67.65;;;31.10;;
12480;SDS011;6305;48.398;11.762;2023-04-21T05:17:58;60.55;;;29.25;;
12480;SDS011;6305;48.398;11.762;2023-04-21T05:20:25;58.63;;;29.67;;
12480;SDS011;6305;48.398;11.762;2023-04-21T05:22:54;58.45;;;30.17;;
12480;SDS011;6305;48.398;11.762;2023-04-21T05:25:21;64.00;;;31.05;;
12480;SDS011;6305;48.398;11.762;2023-04-21T05:27:48;53.17;;;27.33;;
12480;SDS011;6305;48.398;11.762;2023-04-21T05:30:16;49.97;;;26.23;;
12480;SDS011;6305;48.398;11.762;2023-04-21T05:32:43;51.35;;;26.10;;
12480;SDS011;6305;48.398;11.762;2023-04-21T05:35:10;49.50;;;26.23;;
12480;SDS011;6305;48.398;11.762;2023-04-21T05:37:37;47.95;;;26.38;;
12480;SDS011;6305;48.398;11.762;2023-04-21T05:40:05;46.85;;;25.13;;
12480;SDS011;6305;48.398;11.762;2023-04-21T05:42:33;45.78;;;25.58;;
12480;SDS011;6305;48.398;11.762;2023-04-21T05:45:00;39.45;;;23.98;;
12480;SDS011;6305;48.398;11.762;2023-04-21T05:47:27;45.40;;;26.25;;
12480;SDS011;6305;48.398;11.762;2023-04-21T05:49:54;41.47;;;23.50;;
12480;SDS011;6305;48.398;11.762;2023-04-21T05:52:21;42.90;;;25.02;;
12480;SDS011;6305;48.398;11.762;2023-04-21T05:54:48;40.45;;;24.83;;
12480;SDS011;6305;48.398;11.762;2023-04-21T05:57:16;41.20;;;25.02;;
12480;SDS011;6305;48.398;11.762;2023-04-21T05:59:43;41.90;;;24.38;;
12480;SDS011;6305;48.398;11.762;2023-04-21T06:02:10;39.08;;;23.00;;
12480;SDS011;6305;48.398;11.762;2023-04-21T06:04:37;39.67;;;24.73;;
12480;SDS011;6305;48.398;11.762;2023-04-21T06:07:04;36.03;;;21.85;;
12480;SDS011;6305;48.398;11.762;2023-04-21T06:09:32;34.65;;;23.20;;
12480;SDS011;6305;48.398;11.762;2023-04-21T06:11:59;34.60;;;22.65;;
12480;SDS011;6305;48.398;11.762;2023-04-21T06:14:27;34.90;;;21.90;;
12480;SDS011;6305;48.398;11.762;2023-04-21T06:16:55;31.50;;;21.30;;
12480;SDS011;6305;48.398;11.762;2023-04-21T06:19:22;34.10;;;22.08;;
12480;SDS011;6305;48.398;11.762;2023-04-21T06:21:49;31.67;;;21.23;;
12480;SDS011;6305;48.398;11.762;2023-04-21T06:24:16;29.38;;;20.55;;
12480;SDS011;6305;48.398;11.762;2023-04-21T06:26:49;31.48;;;21.17;;
12480;SDS011;6305;48.398;11.762;2023-04-21T06:29:16;30.45;;;20.58;;
12480;SDS011;6305;48.398;11.762;2023-04-21T06:31:45;31.08;;;21.38;;
12480;SDS011;6305;48.398;11.762;2023-04-21T06:34:12;32.53;;;22.60;;
12480;SDS011;6305;48.398;11.762;2023-04-21T06:36:39;30.60;;;21.15;;
12480;SDS011;6305;48.398;11.762;2023-04-21T06:39:06;31.63;;;22.38;;
12480;SDS011;6305;48.398;11.762;2023-04-21T06:41:33;32.08;;;22.33;;
12480;SDS011;6305;48.398;11.762;2023-04-21T06:44:00;33.17;;;22.20;;
12480;SDS011;6305;48.398;11.762;2023-04-21T06:46:27;33.20;;;23.45;;
12480;SDS011;6305;48.398;11.762;2023-04-21T06:48:55;30.40;;;21.38;;
12480;SDS011;6305;48.398;11.762;2023-04-21T06:51:22;30.73;;;21.27;;
12480;SDS011;6305;48.398;11.762;2023-04-21T06:53:49;29.60;;;20.77;;
12480;SDS011;6305;48.398;11.762;2023-04-21T06:56:16;28.08;;;21.00;;
12480;SDS011;6305;48.398;11.762;2023-04-21T06:58:43;26.48;;;19.38;;
12480;SDS011;6305;48.398;11.762;2023-04-21T07:01:11;29.45;;;20.08;;
12480;SDS011;6305;48.398;11.762;2023-04-21T07:03:37;26.35;;;20.13;;
12480;SDS011;6305;48.398;11.762;2023-04-21T07:06:06;26.58;;;20.45;;
12480;SDS011;6305;48.398;11.762;2023-04-21T07:08:33;26.05;;;20.52;;
12480;SDS011;6305;48.398;11.762;2023-04-21T07:11:00;28.40;;;19.83;;
12480;SDS011;6305;48.398;11.762;2023-04-21T07:13:27;26.80;;;20.55;;
12480;SDS011;6305;48.398;11.762;2023-04-21T07:15:54;28.73;;;20.75;;
12480;SDS011;6305;48.398;11.762;2023-04-21T07:18:21;31.73;;;20.45;;
12480;SDS011;6305;48.398;11.762;2023-04-21T07:20:48;26.75;;;20.23;;
12480;SDS011;6305;48.398;11.762;2023-04-21T07:23:16;29.92;;;20.92;;
12480;SDS011;6305;48.398;11.762;2023-04-21T07:25:44;29.48;;;20.00;;
12480;SDS011;6305;48.398;11.762;2023-04-21T07:28:11;28.60;;;19.90;;
12480;SDS011;6305;48.398;11.762;2023-04-21T07:30:39;27.75;;;20.13;;
12480;SDS011;6305;48.398;11.762;2023-04-21T07:33:07;25.73;;;19.45;;
12480;SDS011;6305;48.398;11.762;2023-04-21T07:35:34;25.38;;;19.70;;
12480;SDS011;6305;48.398;11.762;2023-04-21T07:38:01;25.63;;;19.23;;
12480;SDS011;6305;48.398;11.762;2023-04-21T07:40:30;26.40;;;20.15;;
12480;SDS011;6305;48.398;11.762;2023-04-21T07:42:56;29.33;;;19.90;;
12480;SDS011;6305;48.398;11.762;2023-04-21T07:45:23;27.50;;;20.45;;
12480;SDS011;6305;48.398;11.762;2023-04-21T07:47:51;27.92;;;20.65;;
12480;SDS011;6305;48.398;11.762;2023-04-21T07:50:18;25.27;;;21.00;;
12480;SDS011;6305;48.398;11.762;2023-04-21T07:52:45;24.80;;;17.50;;
12480;SDS011;6305;48.398;11.762;2023-04-21T07:55:12;22.48;;;17.10;;
12480;SDS011;6305;48.398;11.762;2023-04-21T07:57:41;23.10;;;18.08;;
12480;SDS011;6305;48.398;11.762;2023-04-21T08:00:09;22.15;;;16.65;;
12480;SDS011;6305;48.398;11.762;2023-04-21T08:02:40;22.25;;;18.75;;
12480;SDS011;6305;48.398;11.762;2023-04-21T08:05:07;22.08;;;18.33;;
12480;SDS011;6305;48.398;11.762;2023-04-21T08:07:34;22.13;;;18.88;;
12480;SDS011;6305;48.398;11.762;2023-04-21T08:10:01;20.02;;;17.50;;
12480;SDS011;6305;48.398;11.762;2023-04-21T08:12:29;20.58;;;18.17;;
12480;SDS011;6305;48.398;11.762;2023-04-21T08:14:57;20.33;;;17.73;;
12480;SDS011;6305;48.398;11.762;2023-04-21T08:17:24;21.35;;;17.73;;
12480;SDS011;6305;48.398;11.762;2023-04-21T08:19:51;20.05;;;16.63;;
12480;SDS011;6305;48.398;11.762;2023-04-21T08:22:17;21.08;;;17.77;;
12480;SDS011;6305;48.398;11.762;2023-04-21T08:24:44;19.02;;;17.02;;
12480;SDS011;6305;48.398;11.762;2023-04-21T08:27:11;18.10;;;16.30;;
12480;SDS011;6305;48.398;11.762;2023-04-21T08:29:38;20.92;;;17.55;;
12480;SDS011;6305;48.398;11.762;2023-04-21T08:32:07;16.25;;;14.65;;
12480;SDS011;6305;48.398;11.762;2023-04-21T08:34:34;20.13;;;18.02;;
12480;SDS011;6305;48.398;11.762;2023-04-21T08:37:01;21.65;;;19.42;;
12480;SDS011;6305;48.398;11.762;2023-04-21T08:39:28;20.60;;;18.40;;
12480;SDS011;6305;48.398;11.762;2023-04-21T08:41:54;18.20;;;16.30;;
12480;SDS011;6305;48.398;11.762;2023-04-21T08:44:23;17.70;;;15.90;;
12480;SDS011;6305;48.398;11.762;2023-04-21T08:46:50;19.50;;;17.38;;
12480;SDS011;6305;48.398;11.762;2023-04-21T08:49:19;18.40;;;16.50;;
12480;SDS011;6305;48.398;11.762;2023-04-21T08:51:46;19.27;;;16.83;;
12480;SDS011;6305;48.398;11.762;2023-04-21T08:54:14;18.67;;;16.60;;
12480;SDS011;6305;48.398;11.762;2023-04-21T08:56:41;16.42;;;14.73;;
12480;SDS011;6305;48.398;11.762;2023-04-21T08:59:08;17.73;;;15.85;;
12480;SDS011;6305;48.398;11.762;2023-04-21T09:04:51;16.02;;;13.85;;
12480;SDS011;6305;48.398;11.762;2023-04-21T09:07:29;16.75;;;14.98;;
12480;SDS011;6305;48.398;11.762;2023-04-21T09:09:57;14.40;;;13.00;;
12480;SDS011;6305;48.398;11.762;2023-04-21T09:12:25;13.25;;;11.88;;
12480;SDS011;6305;48.398;11.762;2023-04-21T09:14:53;16.02;;;14.38;;
12480;SDS011;6305;48.398;11.762;2023-04-21T09:17:26;13.88;;;12.48;;
12480;SDS011;6305;48.398;11.762;2023-04-21T09:19:57;13.35;;;11.68;;
12480;SDS011;6305;48.398;11.762;2023-04-21T09:22:38;14.10;;;12.68;;
12480;SDS011;6305;48.398;11.762;2023-04-21T09:25:05;12.82;;;11.55;;
12480;SDS011;6305;48.398;11.762;2023-04-21T09:27:34;14.68;;;13.13;;
12480;SDS011;6305;48.398;11.762;2023-04-21T09:30:02;17.00;;;15.20;;
12480;SDS011;6305;48.398;11.762;2023-04-21T09:32:34;17.52;;;13.70;;
12480;SDS011;6305;48.398;11.762;2023-04-21T09:35:05;19.85;;;15.75;;
12480;SDS011;6305;48.398;11.762;2023-04-21T09:37:34;18.33;;;15.38;;
12480;SDS011;6305;48.398;11.762;2023-04-21T09:40:02;17.55;;;15.07;;
12480;SDS011;6305;48.398;11.762;2023-04-21T09:42:30;17.08;;;13.52;;
12480;SDS011;6305;48.398;11.762;2023-04-21T09:44:58;15.77;;;13.27;;
12480;SDS011;6305;48.398;11.762;2023-04-21T09:47:25;15.68;;;13.52;;
12480;SDS011;6305;48.398;11.762;2023-04-21T09:49:54;14.40;;;12.60;;
12480;SDS011;6305;48.398;11.762;2023-04-21T09:52:25;14.45;;;12.93;;
12480;SDS011;6305;48.398;11.762;2023-04-21T09:54:56;14.55;;;12.85;;
12480;SDS011;6305;48.398;11.762;2023-04-21T09:57:25;13.95;;;12.20;;
12480;SDS011;6305;48.398;11.762;2023-04-21T09:59:55;12.45;;;11.15;;
12480;SDS011;6305;48.398;11.762;2023-04-21T10:02:28;13.50;;;11.90;;
12480;SDS011;6305;48.398;11.762;2023-04-21T10:04:56;13.75;;;11.90;;
12480;SDS011;6305;48.398;11.762;2023-04-21T10:07:23;15.40;;;11.82;;
12480;SDS011;6305;48.398;11.762;2023-04-21T10:09:53;14.85;;;13.25;;
12480;SDS011;6305;48.398;11.762;2023-04-21T10:12:23;14.50;;;12.68;;
12480;SDS011;6305;48.398;11.762;2023-04-21T10:14:51;14.05;;;12.55;;
12480;SDS011;6305;48.398;11.762;2023-04-21T10:17:20;13.68;;;11.15;;
12480;SDS011;6305;48.398;11.762;2023-04-21T10:19:50;12.60;;;11.30;;
12480;SDS011;6305;48.398;11.762;2023-04-21T10:22:29;13.57;;;12.18;;
12480;SDS011;6305;48.398;11.762;2023-04-21T10:24:57;13.00;;;11.70;;
12480;SDS011;6305;48.398;11.762;2023-04-21T10:27:31;12.57;;;11.25;;
12480;SDS011;6305;48.398;11.762;2023-04-21T10:30:00;12.73;;;10.75;;
12480;SDS011;6305;48.398;11.762;2023-04-21T10:32:42;13.85;;;11.82;;
12480;SDS011;6305;48.398;11.762;2023-04-21T10:35:10;13.73;;;12.18;;
12480;SDS011;6305;48.398;11.762;2023-04-21T10:37:41;13.75;;;12.30;;
12480;SDS011;6305;48.398;11.762;2023-04-21T10:40:31;11.30;;;10.18;;
12480;SDS011;6305;48.398;11.762;2023-04-21T10:43:01;9.68;;;8.65;;
12480;SDS011;6305;48.398;11.762;2023-04-21T10:45:28;11.02;;;9.32;;
12480;SDS011;6305;48.398;11.762;2023-04-21T10:47:58;11.02;;;8.93;;
12480;SDS011;6305;48.398;11.762;2023-04-21T10:50:28;9.98;;;8.63;;
12480;SDS011;6305;48.398;11.762;2023-04-21T10:52:58;9.65;;;8.57;;
12480;SDS011;6305;48.398;11.762;2023-04-21T10:55:34;10.23;;;8.93;;
12480;SDS011;6305;48.398;11.762;2023-04-21T10:58:01;9.15;;;8.25;;
12480;SDS011;6305;48.398;11.762;2023-04-21T11:00:30;8.75;;;7.95;;
12480;SDS011;6305;48.398;11.762;2023-04-21T11:02:58;8.48;;;7.68;;
12480;SDS011;6305;48.398;11.762;2023-04-21T11:05:31;10.07;;;9.07;;
12480;SDS011;6305;48.398;11.762;2023-04-21T11:08:04;9.13;;;8.23;;
12480;SDS011;6305;48.398;11.762;2023-04-21T11:10:49;8.05;;;6.68;;
12480;SDS011;6305;48.398;11.762;2023-04-21T11:13:19;8.13;;;7.30;;
12480;SDS011;6305;48.398;11.762;2023-04-21T11:15:58;8.57;;;7.65;;
12480;SDS011;6305;48.398;11.762;2023-04-21T11:18:33;8.75;;;7.95;;
12480;SDS011;6305;48.398;11.762;2023-04-21T11:21:10;8.48;;;7.38;;
12480;SDS011;6305;48.398;11.762;2023-04-21T11:23:48;8.63;;;7.80;;
12480;SDS011;6305;48.398;11.762;2023-04-21T11:26:16;8.77;;;7.90;;
12480;SDS011;6305;48.398;11.762;2023-04-21T11:28:46;9.38;;;8.23;;
12480;SDS011;6305;48.398;11.762;2023-04-21T11:31:14;10.05;;;7.68;;
12480;SDS011;6305;48.398;11.762;2023-04-21T11:33:41;8.43;;;7.57;;
12480;SDS011;6305;48.398;11.762;2023-04-21T11:36:08;8.20;;;7.32;;
12480;SDS011;6305;48.398;11.762;2023-04-21T11:38:36;8.38;;;7.47;;
12480;SDS011;6305;48.398;11.762;2023-04-21T11:41:06;6.80;;;6.10;;
12480;SDS011;6305;48.398;11.762;2023-04-21T11:43:34;7.75;;;7.00;;
12480;SDS011;6305;48.398;11.762;2023-04-21T11:46:11;7.93;;;7.13;;
12480;SDS011;6305;48.398;11.762;2023-04-21T11:48:41;8.90;;;8.10;;
12480;SDS011;6305;48.398;11.762;2023-04-21T11:51:13;6.65;;;6.05;;
12480;SDS011;6305;48.398;11.762;2023-04-21T11:53:41;6.90;;;6.28;;
12480;SDS011;6305;48.398;11.762;2023-04-21T11:56:09;6.40;;;5.80;;
12480;SDS011;6305;48.398;11.762;2023-04-21T11:58:37;6.18;;;5.57;;
12480;SDS011;6305;48.398;11.762;2023-04-21T12:01:07;7.15;;;6.45;;
12480;SDS011;6305;48.398;11.762;2023-04-21T12:03:34;8.27;;;7.45;;
12480;SDS011;6305;48.398;11.762;2023-04-21T12:06:01;6.93;;;6.22;;
12480;SDS011;6305;48.398;11.762;2023-04-21T12:08:29;7.95;;;7.15;;
12480;SDS011;6305;48.398;11.762;2023-04-21T12:10:57;8.57;;;7.78;;
12480;SDS011;6305;48.398;11.762;2023-04-21T12:13:25;7.63;;;6.93;;
12480;SDS011;6305;48.398;11.762;2023-04-21T12:15:53;8.75;;;7.80;;
12480;SDS011;6305;48.398;11.762;2023-04-21T12:18:20;8.93;;;8.00;;
12480;SDS011;6305;48.398;11.762;2023-04-21T12:20:52;8.55;;;7.60;;
12480;SDS011;6305;48.398;11.762;2023-04-21T12:23:19;7.00;;;6.30;;
12480;SDS011;6305;48.398;11.762;2023-04-21T12:25:46;6.63;;;6.03;;
12480;SDS011;6305;48.398;11.762;2023-04-21T12:28:14;6.05;;;5.50;;
12480;SDS011;6305;48.398;11.762;2023-04-21T12:30:45;6.93;;;6.22;;
12480;SDS011;6305;48.398;11.762;2023-04-21T12:33:15;7.30;;;6.57;;
12480;SDS011;6305;48.398;11.762;2023-04-21T12:35:43;5.20;;;4.70;;
12480;SDS011;6305;48.398;11.762;2023-04-21T12:38:09;5.05;;;4.55;;
12480;SDS011;6305;48.398;11.762;2023-04-21T12:40:36;5.50;;;4.82;;
12480;SDS011;6305;48.398;11.762;2023-04-21T12:43:04;5.82;;;5.28;;
12480;SDS011;6305;48.398;11.762;2023-04-21T12:45:32;3.67;;;3.35;;
12480;SDS011;6305;48.398;11.762;2023-04-21T12:48:00;2.97;;;2.72;;
12480;SDS011;6305;48.398;11.762;2023-04-21T12:50:28;3.40;;;3.10;;
12480;SDS011;6305;48.398;11.762;2023-04-21T12:52:55;3.30;;;3.00;;
12480;SDS011;6305;48.398;11.762;2023-04-21T12:55:22;3.20;;;2.90;;
12480;SDS011;6305;48.398;11.762;2023-04-21T12:57:49;2.55;;;2.35;;
12480;SDS011;6305;48.398;11.762;2023-04-21T13:00:17;3.45;;;2.97;;
12480;SDS011;6305;48.398;11.762;2023-04-21T13:02:44;3.40;;;3.00;;
12480;SDS011;6305;48.398;11.762;2023-04-21T13:05:12;4.38;;;3.22;;
12480;SDS011;6305;48.398;11.762;2023-04-21T13:07:39;3.85;;;3.35;;
12480;SDS011;6305;48.398;11.762;2023-04-21T13:10:07;3.35;;;2.90;;
12480;SDS011;6305;48.398;11.762;2023-04-21T13:12:35;3.20;;;2.90;;
12480;SDS011;6305;48.398;11.762;2023-04-21T13:15:03;3.30;;;3.00;;
12480;SDS011;6305;48.398;11.762;2023-04-21T13:17:30;3.28;;;2.97;;
12480;SDS011;6305;48.398;11.762;2023-04-21T13:19:58;6.70;;;3.10;;
12480;SDS011;6305;48.398;11.762;2023-04-21T13:22:26;3.05;;;2.75;;
12480;SDS011;6305;48.398;11.762;2023-04-21T13:24:53;2.80;;;2.55;;
12480;SDS011;6305;48.398;11.762;2023-04-21T13:27:20;3.05;;;2.75;;
12480;SDS011;6305;48.398;11.762;2023-04-21T13:29:47;2.90;;;2.40;;
12480;SDS011;6305;48.398;11.762;2023-04-21T13:32:15;3.25;;;2.35;;
12480;SDS011;6305;48.398;11.762;2023-04-21T13:34:42;2.88;;;2.38;;
12480;SDS011;6305;48.398;11.762;2023-04-21T13:37:08;2.60;;;2.40;;
12480;SDS011;6305;48.398;11.762;2023-04-21T13:39:41;2.38;;;2.10;;
12480;SDS011;6305;48.398;11.762;2023-04-21T13:42:08;3.08;;;2.30;;
12480;SDS011;6305;48.398;11.762;2023-04-21T13:44:35;2.83;;;2.30;;
12480;SDS011;6305;48.398;11.762;2023-04-21T13:47:02;2.55;;;2.35;;
12480;SDS011;6305;48.398;11.762;2023-04-21T13:49:29;2.67;;;2.47;;
12480;SDS011;6305;48.398;11.762;2023-04-21T13:51:56;1.88;;;1.77;;
12480;SDS011;6305;48.398;11.762;2023-04-21T13:54:24;1.80;;;1.70;;
12480;SDS011;6305;48.398;11.762;2023-04-21T13:56:52;1.80;;;1.70;;
12480;SDS011;6305;48.398;11.762;2023-04-21T13:59:19;2.00;;;1.90;;
12480;SDS011;6305;48.398;11.762;2023-04-21T14:01:46;2.25;;;2.05;;
12480;SDS011;6305;48.398;11.762;2023-04-21T14:04:13;4.43;;;3.08;;
12480;SDS011;6305;48.398;11.762;2023-04-21T14:06:40;2.63;;;2.42;;
12480;SDS011;6305;48.398;11.762;2023-04-21T14:09:07;2.20;;;1.77;;
12480;SDS011;6305;48.398;11.762;2023-04-21T14:11:34;1.88;;;1.77;;
12480;SDS011;6305;48.398;11.762;2023-04-21T14:14:03;2.00;;;1.70;;
12480;SDS011;6305;48.398;11.762;2023-04-21T14:16:29;4.00;;;2.80;;
12480;SDS011;6305;48.398;11.762;2023-04-21T14:18:57;2.30;;;2.05;;
12480;SDS011;6305;48.398;11.762;2023-04-21T14:21:24;2.13;;;1.70;;
12480;SDS011;6305;48.398;11.762;2023-04-21T14:23:51;4.35;;;3.10;;
12480;SDS011;6305;48.398;11.762;2023-04-21T14:26:17;2.50;;;2.00;;
12480;SDS011;6305;48.398;11.762;2023-04-21T14:28:45;3.05;;;2.13;;
12480;SDS011;6305;48.398;11.762;2023-04-21T14:31:13;3.53;;;2.78;;
12480;SDS011;6305;48.398;11.762;2023-04-21T14:33:40;6.60;;;4.35;;
12480;SDS011;6305;48.398;11.762;2023-04-21T14:36:07;3.53;;;2.80;;